Terminal Aerodrome Forecast
Issued by NWS

Home | Current Version | Previous Version | Text Only | Print | Product List | Glossary On
Versions: 1 2 3 4 5 6 7 8 9 10 11 12 13 14 15
000
FTUS46 KPQR 241134
TAFONP
TAF
KONP 241134Z 2412/2512 19012G20KT 6SM -RA BR SCT015 OVC040
     FM241300 21012G20KT 6SM -RA BR BKN015 OVC040
     FM241600 22014G20KT P6SM -SHRA SCT015 BKN035
      TEMPO 2416/2419 BKN015 OVC035
     FM250200 22008KT P6SM -SHRA SCT015 BKN035=

USA.gov is the U.S. government's official web portal to all federal, state and local government web resources and services.